sensor_id;sensor_type;location;lat;lon;timestamp;P1;durP1;ratioP1;P2;durP2;ratioP2
70675;SDS011;59069;52.242;20.900;2023-03-01T00:01:40;72.23;;;26.30;;
70675;SDS011;59069;52.242;20.900;2023-03-01T00:04:05;71.00;;;25.90;;
70675;SDS011;59069;52.242;20.900;2023-03-01T00:06:31;76.17;;;27.63;;
70675;SDS011;59069;52.242;20.900;2023-03-01T00:08:57;71.80;;;25.15;;
70675;SDS011;59069;52.242;20.900;2023-03-01T00:11:23;67.67;;;25.13;;
70675;SDS011;59069;52.242;20.900;2023-03-01T00:13:52;71.63;;;25.55;;
70675;SDS011;59069;52.242;20.900;2023-03-01T00:16:21;65.47;;;25.67;;
70675;SDS011;59069;52.242;20.900;2023-03-01T00:18:49;68.60;;;24.90;;
70675;SDS011;59069;52.242;20.900;2023-03-01T00:21:15;68.68;;;25.73;;
70675;SDS011;59069;52.242;20.900;2023-03-01T00:23:41;70.03;;;26.70;;
70675;SDS011;59069;52.242;20.900;2023-03-01T00:26:09;72.00;;;26.43;;
70675;SDS011;59069;52.242;20.900;2023-03-01T00:28:37;74.40;;;26.10;;
70675;SDS011;59069;52.242;20.900;2023-03-01T00:31:07;68.95;;;25.92;;
70675;SDS011;59069;52.242;20.900;2023-03-01T00:33:56;69.22;;;24.15;;
70675;SDS011;59069;52.242;20.900;2023-03-01T00:36:24;69.83;;;25.80;;
70675;SDS011;59069;52.242;20.900;2023-03-01T00:38:51;67.75;;;25.58;;
70675;SDS011;59069;52.242;20.900;2023-03-01T00:41:17;67.90;;;25.48;;
70675;SDS011;59069;52.242;20.900;2023-03-01T00:43:44;65.05;;;24.75;;
70675;SDS011;59069;52.242;20.900;2023-03-01T00:46:11;69.77;;;26.93;;
70675;SDS011;59069;52.242;20.900;2023-03-01T00:48:39;74.10;;;27.00;;
70675;SDS011;59069;52.242;20.900;2023-03-01T00:51:06;73.28;;;26.35;;
70675;SDS011;59069;52.242;20.900;2023-03-01T00:53:36;75.43;;;26.10;;
70675;SDS011;59069;52.242;20.900;2023-03-01T00:56:02;71.90;;;24.98;;
70675;SDS011;59069;52.242;20.900;2023-03-01T00:58:29;70.18;;;25.35;;
70675;SDS011;59069;52.242;20.900;2023-03-01T01:00:55;69.15;;;24.73;;
70675;SDS011;59069;52.242;20.900;2023-03-01T01:03:20;61.07;;;24.40;;
70675;SDS011;59069;52.242;20.900;2023-03-01T01:05:46;72.28;;;25.95;;
70675;SDS011;59069;52.242;20.900;2023-03-01T01:08:12;67.93;;;24.43;;
70675;SDS011;59069;52.242;20.900;2023-03-01T01:10:38;62.53;;;23.98;;
70675;SDS011;59069;52.242;20.900;2023-03-01T01:13:03;69.07;;;24.80;;
70675;SDS011;59069;52.242;20.900;2023-03-01T01:15:32;64.32;;;24.80;;
70675;SDS011;59069;52.242;20.900;2023-03-01T01:17:59;63.45;;;25.33;;
70675;SDS011;59069;52.242;20.900;2023-03-01T01:20:24;60.70;;;24.10;;
70675;SDS011;59069;52.242;20.900;2023-03-01T01:22:50;73.68;;;25.25;;
70675;SDS011;59069;52.242;20.900;2023-03-01T01:25:16;69.90;;;24.67;;
70675;SDS011;59069;52.242;20.900;2023-03-01T01:27:42;60.40;;;24.45;;
70675;SDS011;59069;52.242;20.900;2023-03-01T01:30:07;59.92;;;23.98;;
70675;SDS011;59069;52.242;20.900;2023-03-01T01:32:33;65.23;;;23.80;;
70675;SDS011;59069;52.242;20.900;2023-03-01T01:34:59;66.65;;;24.67;;
70675;SDS011;59069;52.242;20.900;2023-03-01T01:37:24;71.60;;;24.80;;
70675;SDS011;59069;52.242;20.900;2023-03-01T01:39:59;65.30;;;23.48;;
70675;SDS011;59069;52.242;20.900;2023-03-01T01:42:29;59.85;;;24.63;;
70675;SDS011;59069;52.242;20.900;2023-03-01T01:48:07;65.93;;;23.37;;
70675;SDS011;59069;52.242;20.900;2023-03-01T01:50:38;62.13;;;24.75;;
70675;SDS011;59069;52.242;20.900;2023-03-01T01:53:06;58.92;;;22.95;;
70675;SDS011;59069;52.242;20.900;2023-03-01T01:55:42;59.28;;;22.23;;
70675;SDS011;59069;52.242;20.900;2023-03-01T01:58:12;67.22;;;23.88;;
70675;SDS011;59069;52.242;20.900;2023-03-01T02:00:40;59.87;;;22.67;;
70675;SDS011;59069;52.242;20.900;2023-03-01T02:03:08;64.25;;;24.40;;
70675;SDS011;59069;52.242;20.900;2023-03-01T02:08:10;67.70;;;24.70;;
70675;SDS011;59069;52.242;20.900;2023-03-01T02:10:37;67.28;;;23.35;;
70675;SDS011;59069;52.242;20.900;2023-03-01T02:13:04;62.70;;;23.73;;
70675;SDS011;59069;52.242;20.900;2023-03-01T02:15:33;63.88;;;22.83;;
70675;SDS011;59069;52.242;20.900;2023-03-01T02:18:00;66.80;;;24.23;;
70675;SDS011;59069;52.242;20.900;2023-03-01T02:23:07;65.93;;;23.83;;
70675;SDS011;59069;52.242;20.900;2023-03-01T02:30:43;64.53;;;23.40;;
70675;SDS011;59069;52.242;20.900;2023-03-01T02:33:33;65.07;;;25.55;;
70675;SDS011;59069;52.242;20.900;2023-03-01T02:36:08;63.72;;;23.77;;
70675;SDS011;59069;52.242;20.900;2023-03-01T02:38:38;70.28;;;24.60;;
70675;SDS011;59069;52.242;20.900;2023-03-01T02:41:05;61.97;;;23.20;;
70675;SDS011;59069;52.242;20.900;2023-03-01T02:43:32;62.30;;;22.97;;
70675;SDS011;59069;52.242;20.900;2023-03-01T02:45:59;65.13;;;24.70;;
70675;SDS011;59069;52.242;20.900;2023-03-01T02:48:37;63.38;;;22.80;;
70675;SDS011;59069;52.242;20.900;2023-03-01T02:57:01;60.50;;;23.23;;
70675;SDS011;59069;52.242;20.900;2023-03-01T02:59:29;58.42;;;23.63;;
70675;SDS011;59069;52.242;20.900;2023-03-01T03:02:04;65.15;;;22.92;;
70675;SDS011;59069;52.242;20.900;2023-03-01T03:04:33;65.63;;;22.65;;
70675;SDS011;59069;52.242;20.900;2023-03-01T03:06:59;59.65;;;22.35;;
70675;SDS011;59069;52.242;20.900;2023-03-01T03:09:25;60.40;;;22.53;;
70675;SDS011;59069;52.242;20.900;2023-03-01T03:11:50;67.55;;;23.05;;
70675;SDS011;59069;52.242;20.900;2023-03-01T03:14:16;62.93;;;24.27;;
70675;SDS011;59069;52.242;20.900;2023-03-01T03:16:48;64.30;;;24.42;;
70675;SDS011;59069;52.242;20.900;2023-03-01T03:19:15;65.53;;;24.20;;
70675;SDS011;59069;52.242;20.900;2023-03-01T03:21:42;65.23;;;22.93;;
70675;SDS011;59069;52.242;20.900;2023-03-01T03:24:08;60.28;;;22.58;;
70675;SDS011;59069;52.242;20.900;2023-03-01T03:26:33;62.97;;;23.63;;
70675;SDS011;59069;52.242;20.900;2023-03-01T03:28:59;69.60;;;23.93;;
70675;SDS011;59069;52.242;20.900;2023-03-01T03:31:25;67.05;;;25.23;;
70675;SDS011;59069;52.242;20.900;2023-03-01T03:33:50;63.77;;;24.43;;
70675;SDS011;59069;52.242;20.900;2023-03-01T03:36:17;64.77;;;24.20;;
70675;SDS011;59069;52.242;20.900;2023-03-01T03:38:44;58.40;;;23.73;;
70675;SDS011;59069;52.242;20.900;2023-03-01T03:41:11;66.40;;;23.33;;
70675;SDS011;59069;52.242;20.900;2023-03-01T03:43:38;63.53;;;21.55;;
70675;SDS011;59069;52.242;20.900;2023-03-01T03:46:05;66.03;;;23.15;;
70675;SDS011;59069;52.242;20.900;2023-03-01T03:48:36;66.55;;;24.52;;
70675;SDS011;59069;52.242;20.900;2023-03-01T03:51:03;65.70;;;22.97;;
70675;SDS011;59069;52.242;20.900;2023-03-01T03:53:32;72.18;;;23.88;;
70675;SDS011;59069;52.242;20.900;2023-03-01T03:55:58;63.95;;;22.50;;
70675;SDS011;59069;52.242;20.900;2023-03-01T03:58:24;61.92;;;23.60;;
70675;SDS011;59069;52.242;20.900;2023-03-01T04:00:54;64.07;;;23.38;;
70675;SDS011;59069;52.242;20.900;2023-03-01T04:03:22;66.17;;;23.80;;
70675;SDS011;59069;52.242;20.900;2023-03-01T04:05:49;64.00;;;23.42;;
70675;SDS011;59069;52.242;20.900;2023-03-01T04:08:18;66.32;;;24.00;;
70675;SDS011;59069;52.242;20.900;2023-03-01T04:10:46;63.10;;;23.33;;
70675;SDS011;59069;52.242;20.900;2023-03-01T04:13:17;63.05;;;23.25;;
70675;SDS011;59069;52.242;20.900;2023-03-01T04:15:45;68.43;;;23.00;;
70675;SDS011;59069;52.242;20.900;2023-03-01T04:18:15;59.28;;;21.63;;
70675;SDS011;59069;52.242;20.900;2023-03-01T04:20:42;64.47;;;23.13;;
70675;SDS011;59069;52.242;20.900;2023-03-01T04:25:47;63.30;;;23.15;;
70675;SDS011;59069;52.242;20.900;2023-03-01T04:28:38;62.87;;;23.43;;
70675;SDS011;59069;52.242;20.900;2023-03-01T04:31:06;60.22;;;22.25;;
70675;SDS011;59069;52.242;20.900;2023-03-01T04:33:41;62.20;;;24.55;;
70675;SDS011;59069;52.242;20.900;2023-03-01T04:36:09;59.40;;;22.33;;
70675;SDS011;59069;52.242;20.900;2023-03-01T04:38:38;60.03;;;22.75;;
70675;SDS011;59069;52.242;20.900;2023-03-01T04:41:05;65.90;;;22.10;;
70675;SDS011;59069;52.242;20.900;2023-03-01T04:43:32;68.47;;;23.23;;
70675;SDS011;59069;52.242;20.900;2023-03-01T04:46:09;65.97;;;24.02;;
70675;SDS011;59069;52.242;20.900;2023-03-01T04:48:38;60.17;;;22.45;;
70675;SDS011;59069;52.242;20.900;2023-03-01T04:51:06;60.35;;;21.70;;
70675;SDS011;59069;52.242;20.900;2023-03-01T04:53:32;63.37;;;23.60;;
70675;SDS011;59069;52.242;20.900;2023-03-01T04:56:01;59.38;;;23.52;;
70675;SDS011;59069;52.242;20.900;2023-03-01T04:58:27;65.80;;;23.08;;
70675;SDS011;59069;52.242;20.900;2023-03-01T05:00:53;64.93;;;24.13;;
70675;SDS011;59069;52.242;20.900;2023-03-01T05:03:20;65.65;;;23.38;;
70675;SDS011;59069;52.242;20.900;2023-03-01T05:05:47;64.80;;;23.87;;
70675;SDS011;59069;52.242;20.900;2023-03-01T05:08:13;67.22;;;23.42;;
70675;SDS011;59069;52.242;20.900;2023-03-01T05:10:46;61.47;;;23.15;;
70675;SDS011;59069;52.242;20.900;2023-03-01T05:13:14;56.90;;;22.67;;
70675;SDS011;59069;52.242;20.900;2023-03-01T05:15:46;61.08;;;22.80;;
70675;SDS011;59069;52.242;20.900;2023-03-01T05:18:22;64.07;;;24.37;;
70675;SDS011;59069;52.242;20.900;2023-03-01T05:20:51;58.53;;;21.60;;
70675;SDS011;59069;52.242;20.900;2023-03-01T05:23:23;67.68;;;23.70;;
70675;SDS011;59069;52.242;20.900;2023-03-01T05:25:49;59.22;;;21.42;;
70675;SDS011;59069;52.242;20.900;2023-03-01T05:28:18;61.53;;;22.90;;
70675;SDS011;59069;52.242;20.900;2023-03-01T05:30:44;57.77;;;22.37;;
70675;SDS011;59069;52.242;20.900;2023-03-01T05:33:10;63.83;;;22.05;;
70675;SDS011;59069;52.242;20.900;2023-03-01T05:35:39;62.83;;;22.05;;
70675;SDS011;59069;52.242;20.900;2023-03-01T05:38:06;65.22;;;22.23;;
70675;SDS011;59069;52.242;20.900;2023-03-01T05:40:32;64.60;;;23.83;;
70675;SDS011;59069;52.242;20.900;2023-03-01T05:42:59;67.43;;;23.50;;
70675;SDS011;59069;52.242;20.900;2023-03-01T05:45:25;61.83;;;22.67;;
70675;SDS011;59069;52.242;20.900;2023-03-01T05:47:53;63.63;;;22.65;;
70675;SDS011;59069;52.242;20.900;2023-03-01T05:55:20;55.85;;;22.48;;
70675;SDS011;59069;52.242;20.900;2023-03-01T05:57:46;63.13;;;22.17;;
70675;SDS011;59069;52.242;20.900;2023-03-01T06:00:12;53.38;;;20.70;;
70675;SDS011;59069;52.242;20.900;2023-03-01T06:02:39;59.70;;;21.20;;
70675;SDS011;59069;52.242;20.900;2023-03-01T06:05:06;58.45;;;21.17;;
70675;SDS011;59069;52.242;20.900;2023-03-01T06:07:33;55.45;;;21.70;;
70675;SDS011;59069;52.242;20.900;2023-03-01T06:10:00;58.17;;;21.60;;
70675;SDS011;59069;52.242;20.900;2023-03-01T06:12:26;56.22;;;21.42;;
70675;SDS011;59069;52.242;20.900;2023-03-01T06:14:55;58.10;;;21.53;;
70675;SDS011;59069;52.242;20.900;2023-03-01T06:17:20;64.00;;;20.83;;
70675;SDS011;59069;52.242;20.900;2023-03-01T06:19:46;55.27;;;21.90;;
70675;SDS011;59069;52.242;20.900;2023-03-01T06:22:12;63.65;;;22.33;;
70675;SDS011;59069;52.242;20.900;2023-03-01T06:24:38;60.50;;;22.10;;
70675;SDS011;59069;52.242;20.900;2023-03-01T06:27:03;61.63;;;21.47;;
70675;SDS011;59069;52.242;20.900;2023-03-01T06:29:29;63.70;;;22.10;;
70675;SDS011;59069;52.242;20.900;2023-03-01T06:31:55;54.85;;;22.27;;
70675;SDS011;59069;52.242;20.900;2023-03-01T06:34:21;61.50;;;23.33;;
70675;SDS011;59069;52.242;20.900;2023-03-01T06:36:46;58.73;;;22.30;;
70675;SDS011;59069;52.242;20.900;2023-03-01T06:39:12;57.83;;;20.13;;
70675;SDS011;59069;52.242;20.900;2023-03-01T06:41:38;56.23;;;20.13;;
70675;SDS011;59069;52.242;20.900;2023-03-01T06:44:03;58.83;;;20.52;;
70675;SDS011;59069;52.242;20.900;2023-03-01T06:46:29;51.27;;;18.50;;
70675;SDS011;59069;52.242;20.900;2023-03-01T06:48:55;55.65;;;20.77;;
70675;SDS011;59069;52.242;20.900;2023-03-01T06:51:20;49.67;;;19.60;;
70675;SDS011;59069;52.242;20.900;2023-03-01T06:53:46;55.45;;;21.15;;
70675;SDS011;59069;52.242;20.900;2023-03-01T06:56:12;54.13;;;20.23;;
70675;SDS011;59069;52.242;20.900;2023-03-01T06:58:37;55.53;;;20.45;;
70675;SDS011;59069;52.242;20.900;2023-03-01T07:01:07;54.67;;;20.17;;
70675;SDS011;59069;52.242;20.900;2023-03-01T07:03:33;53.30;;;20.27;;
70675;SDS011;59069;52.242;20.900;2023-03-01T07:05:59;45.30;;;19.20;;
70675;SDS011;59069;52.242;20.900;2023-03-01T07:08:24;52.60;;;20.45;;
70675;SDS011;59069;52.242;20.900;2023-03-01T07:10:57;52.27;;;20.77;;
70675;SDS011;59069;52.242;20.900;2023-03-01T07:13:23;52.85;;;19.23;;
70675;SDS011;59069;52.242;20.900;2023-03-01T07:15:49;51.38;;;19.85;;
70675;SDS011;59069;52.242;20.900;2023-03-01T07:18:14;49.20;;;19.97;;
70675;SDS011;59069;52.242;20.900;2023-03-01T07:20:40;53.47;;;18.33;;
70675;SDS011;59069;52.242;20.900;2023-03-01T07:23:06;46.50;;;19.00;;
70675;SDS011;59069;52.242;20.900;2023-03-01T07:25:32;47.53;;;19.27;;
70675;SDS011;59069;52.242;20.900;2023-03-01T07:27:58;47.10;;;17.83;;
70675;SDS011;59069;52.242;20.900;2023-03-01T07:30:23;51.17;;;19.30;;
70675;SDS011;59069;52.242;20.900;2023-03-01T07:32:51;48.08;;;20.23;;
70675;SDS011;59069;52.242;20.900;2023-03-01T07:35:17;47.10;;;18.08;;
70675;SDS011;59069;52.242;20.900;2023-03-01T07:37:43;46.73;;;18.03;;
70675;SDS011;59069;52.242;20.900;2023-03-01T07:40:09;45.85;;;18.33;;
70675;SDS011;59069;52.242;20.900;2023-03-01T07:42:35;46.97;;;18.15;;
70675;SDS011;59069;52.242;20.900;2023-03-01T07:45:01;53.00;;;18.80;;
70675;SDS011;59069;52.242;20.900;2023-03-01T07:47:26;47.80;;;19.30;;
70675;SDS011;59069;52.242;20.900;2023-03-01T07:49:52;44.70;;;18.67;;
70675;SDS011;59069;52.242;20.900;2023-03-01T07:52:17;45.60;;;17.77;;
70675;SDS011;59069;52.242;20.900;2023-03-01T07:54:43;45.58;;;18.67;;
70675;SDS011;59069;52.242;20.900;2023-03-01T07:57:11;46.63;;;18.70;;
70675;SDS011;59069;52.242;20.900;2023-03-01T07:59:37;44.00;;;17.97;;
70675;SDS011;59069;52.242;20.900;2023-03-01T08:02:03;43.53;;;17.07;;
70675;SDS011;59069;52.242;20.900;2023-03-01T08:04:28;41.50;;;17.58;;
70675;SDS011;59069;52.242;20.900;2023-03-01T08:06:54;47.13;;;18.43;;
70675;SDS011;59069;52.242;20.900;2023-03-01T08:09:20;37.55;;;16.45;;
70675;SDS011;59069;52.242;20.900;2023-03-01T08:11:46;42.85;;;17.75;;
70675;SDS011;59069;52.242;20.900;2023-03-01T08:14:12;39.20;;;16.20;;
70675;SDS011;59069;52.242;20.900;2023-03-01T08:16:37;41.65;;;16.58;;
70675;SDS011;59069;52.242;20.900;2023-03-01T08:19:04;38.03;;;16.63;;
70675;SDS011;59069;52.242;20.900;2023-03-01T08:21:31;40.77;;;17.27;;
70675;SDS011;59069;52.242;20.900;2023-03-01T08:24:00;36.38;;;17.50;;
70675;SDS011;59069;52.242;20.900;2023-03-01T08:26:26;34.15;;;15.07;;
70675;SDS011;59069;52.242;20.900;2023-03-01T08:28:52;37.77;;;16.37;;
70675;SDS011;59069;52.242;20.900;2023-03-01T08:31:19;35.75;;;16.98;;
70675;SDS011;59069;52.242;20.900;2023-03-01T08:33:51;38.03;;;16.52;;
70675;SDS011;59069;52.242;20.900;2023-03-01T08:36:21;40.30;;;16.60;;
70675;SDS011;59069;52.242;20.900;2023-03-01T08:38:48;38.08;;;17.35;;
70675;SDS011;59069;52.242;20.900;2023-03-01T08:41:14;38.85;;;15.70;;
70675;SDS011;59069;52.242;20.900;2023-03-01T08:43:39;37.17;;;16.83;;
70675;SDS011;59069;52.242;20.900;2023-03-01T08:46:05;39.30;;;17.83;;
70675;SDS011;59069;52.242;20.900;2023-03-01T08:48:31;37.22;;;18.60;;
70675;SDS011;59069;52.242;20.900;2023-03-01T08:50:57;36.30;;;16.30;;
70675;SDS011;59069;52.242;20.900;2023-03-01T08:53:33;34.45;;;15.70;;
70675;SDS011;59069;52.242;20.900;2023-03-01T08:56:01;37.60;;;16.97;;
70675;SDS011;59069;52.242;20.900;2023-03-01T08:58:28;35.83;;;16.90;;
70675;SDS011;59069;52.242;20.900;2023-03-01T09:00:54;37.85;;;17.77;;
70675;SDS011;59069;52.242;20.900;2023-03-01T09:03:22;37.70;;;17.20;;
70675;SDS011;59069;52.242;20.900;2023-03-01T09:05:49;34.00;;;16.23;;
70675;SDS011;59069;52.242;20.900;2023-03-01T09:08:15;31.87;;;16.13;;
70675;SDS011;59069;52.242;20.900;2023-03-01T09:10:44;32.50;;;15.82;;
70675;SDS011;59069;52.242;20.900;2023-03-01T09:13:11;37.05;;;16.20;;
70675;SDS011;59069;52.242;20.900;2023-03-01T09:15:37;34.60;;;17.00;;
70675;SDS011;59069;52.242;20.900;2023-03-01T09:18:03;36.20;;;17.15;;
70675;SDS011;59069;52.242;20.900;2023-03-01T09:20:30;31.70;;;16.03;;
70675;SDS011;59069;52.242;20.900;2023-03-01T09:22:57;33.88;;;15.90;;
70675;SDS011;59069;52.242;20.900;2023-03-01T09:25:23;33.67;;;16.17;;
70675;SDS011;59069;52.242;20.900;2023-03-01T09:27:52;32.67;;;17.77;;
70675;SDS011;59069;52.242;20.900;2023-03-01T09:30:19;38.60;;;17.33;;
70675;SDS011;59069;52.242;20.900;2023-03-01T09:32:45;34.57;;;16.37;;
70675;SDS011;59069;52.242;20.900;2023-03-01T09:35:11;34.72;;;16.95;;
70675;SDS011;59069;52.242;20.900;2023-03-01T09:37:37;33.72;;;16.05;;
70675;SDS011;59069;52.242;20.900;2023-03-01T09:40:05;31.57;;;15.77;;
70675;SDS011;59069;52.242;20.900;2023-03-01T09:42:45;31.83;;;15.10;;
70675;SDS011;59069;52.242;20.900;2023-03-01T09:45:21;32.97;;;14.82;;
70675;SDS011;59069;52.242;20.900;2023-03-01T09:47:52;35.35;;;14.70;;
70675;SDS011;59069;52.242;20.900;2023-03-01T09:50:20;32.33;;;14.38;;
70675;SDS011;59069;52.242;20.900;2023-03-01T09:53:02;31.43;;;14.40;;
70675;SDS011;59069;52.242;20.900;2023-03-01T09:55:31;31.15;;;13.45;;
70675;SDS011;59069;52.242;20.900;2023-03-01T09:58:25;29.95;;;13.63;;
70675;SDS011;59069;52.242;20.900;2023-03-01T10:01:02;27.35;;;13.07;;
70675;SDS011;59069;52.242;20.900;2023-03-01T10:06:51;29.10;;;13.17;;
70675;SDS011;59069;52.242;20.900;2023-03-01T10:09:32;33.88;;;14.77;;
70675;SDS011;59069;52.242;20.900;2023-03-01T10:12:00;32.67;;;15.55;;
70675;SDS011;59069;52.242;20.900;2023-03-01T10:14:35;30.35;;;14.55;;
70675;SDS011;59069;52.242;20.900;2023-03-01T10:20:14;24.47;;;12.13;;
70675;SDS011;59069;52.242;20.900;2023-03-01T10:22:41;25.85;;;11.60;;
70675;SDS011;59069;52.242;20.900;2023-03-01T10:25:08;24.40;;;12.45;;
70675;SDS011;59069;52.242;20.900;2023-03-01T10:27:51;21.70;;;11.83;;
70675;SDS011;59069;52.242;20.900;2023-03-01T10:30:38;25.58;;;11.60;;
70675;SDS011;59069;52.242;20.900;2023-03-01T10:35:50;24.70;;;11.27;;
70675;SDS011;59069;52.242;20.900;2023-03-01T10:38:16;22.57;;;12.20;;
70675;SDS011;59069;52.242;20.900;2023-03-01T10:40:52;25.02;;;12.00;;
70675;SDS011;59069;52.242;20.900;2023-03-01T10:43:18;25.13;;;12.38;;
70675;SDS011;59069;52.242;20.900;2023-03-01T10:45:45;22.48;;;10.88;;
70675;SDS011;59069;52.242;20.900;2023-03-01T10:50:48;22.38;;;10.63;;
70675;SDS011;59069;52.242;20.900;2023-03-01T10:54:01;21.48;;;9.98;;
70675;SDS011;59069;52.242;20.900;2023-03-01T10:56:09;21.23;;;9.90;;
70675;SDS011;59069;52.242;20.900;2023-03-01T10:58:37;20.40;;;9.40;;
70675;SDS011;59069;52.242;20.900;2023-03-01T11:03:39;21.15;;;9.55;;
70675;SDS011;59069;52.242;20.900;2023-03-01T11:11:52;19.50;;;9.07;;
70675;SDS011;59069;52.242;20.900;2023-03-01T11:13:57;23.25;;;8.90;;
70675;SDS011;59069;52.242;20.900;2023-03-01T11:16:35;23.20;;;8.70;;
70675;SDS011;59069;52.242;20.900;2023-03-01T11:21:34;19.77;;;8.60;;
70675;SDS011;59069;52.242;20.900;2023-03-01T11:24:03;19.00;;;8.43;;
70675;SDS011;59069;52.242;20.900;2023-03-01T11:26:31;18.35;;;8.10;;
70675;SDS011;59069;52.242;20.900;2023-03-01T11:29:02;17.60;;;8.30;;
70675;SDS011;59069;52.242;20.900;2023-03-01T11:31:32;18.53;;;8.17;;
70675;SDS011;59069;52.242;20.900;2023-03-01T11:36:44;21.80;;;8.55;;
70675;SDS011;59069;52.242;20.900;2023-03-01T11:39:34;22.10;;;8.05;;
70675;SDS011;59069;52.242;20.900;2023-03-01T11:42:20;19.52;;;8.68;;
70675;SDS011;59069;52.242;20.900;2023-03-01T11:45:08;15.47;;;7.63;;
70675;SDS011;59069;52.242;20.900;2023-03-01T11:50:42;21.67;;;8.77;;
70675;SDS011;59069;52.242;20.900;2023-03-01T11:56:05;21.63;;;8.05;;
70675;SDS011;59069;52.242;20.900;2023-03-01T12:07:00;21.15;;;8.05;;
70675;SDS011;59069;52.242;20.900;2023-03-01T12:23:44;19.00;;;8.88;;
70675;SDS011;59069;52.242;20.900;2023-03-01T12:31:44;17.55;;;7.57;;
70675;SDS011;59069;52.242;20.900;2023-03-01T12:48:31;19.20;;;9.05;;
70675;SDS011;59069;52.242;20.900;2023-03-01T12:51:02;20.88;;;8.35;;
70675;SDS011;59069;52.242;20.900;2023-03-01T12:53:36;24.77;;;9.47;;
70675;SDS011;59069;52.242;20.900;2023-03-01T12:56:07;19.83;;;8.90;;
70675;SDS011;59069;52.242;20.900;2023-03-01T13:01:35;20.90;;;9.13;;
70675;SDS011;59069;52.242;20.900;2023-03-01T13:15:28;19.02;;;8.40;;
70675;SDS011;59069;52.242;20.900;2023-03-01T13:38:58;21.33;;;9.32;;
70675;SDS011;59069;52.242;20.900;2023-03-01T13:44:24;20.85;;;9.40;;
70675;SDS011;59069;52.242;20.900;2023-03-01T13:52:06;21.23;;;9.85;;
70675;SDS011;59069;52.242;20.900;2023-03-01T13:55:14;24.50;;;9.80;;
70675;SDS011;59069;52.242;20.900;2023-03-01T13:57:50;20.88;;;8.98;;
70675;SDS011;59069;52.242;20.900;2023-03-01T14:00:30;19.20;;;9.57;;
70675;SDS011;59069;52.242;20.900;2023-03-01T14:03:04;21.27;;;9.30;;
70675;SDS011;59069;52.242;20.900;2023-03-01T14:05:37;20.80;;;10.05;;
70675;SDS011;59069;52.242;20.900;2023-03-01T14:08:04;19.90;;;9.40;;
70675;SDS011;59069;52.242;20.900;2023-03-01T14:10:43;19.38;;;9.32;;
70675;SDS011;59069;52.242;20.900;2023-03-01T14:13:20;18.85;;;9.05;;
70675;SDS011;59069;52.242;20.900;2023-03-01T14:16:00;20.08;;;9.57;;
70675;SDS011;59069;52.242;20.900;2023-03-01T14:18:45;19.35;;;9.35;;
70675;SDS011;59069;52.242;20.900;2023-03-01T14:21:21;17.70;;;9.30;;
70675;SDS011;59069;52.242;20.900;2023-03-01T14:23:47;18.65;;;9.75;;
70675;SDS011;59069;52.242;20.900;2023-03-01T14:26:13;21.52;;;10.10;;
70675;SDS011;59069;52.242;20.900;2023-03-01T14:28:46;19.42;;;9.43;;
70675;SDS011;59069;52.242;20.900;2023-03-01T14:33:57;17.33;;;9.43;;
70675;SDS011;59069;52.242;20.900;2023-03-01T14:36:26;21.40;;;10.38;;
70675;SDS011;59069;52.242;20.900;2023-03-01T14:38:53;19.83;;;9.45;;
70675;SDS011;59069;52.242;20.900;2023-03-01T14:41:23;20.33;;;9.70;;
70675;SDS011;59069;52.242;20.900;2023-03-01T14:43:51;18.95;;;9.25;;
70675;SDS011;59069;52.242;20.900;2023-03-01T14:48:51;20.45;;;9.50;;
70675;SDS011;59069;52.242;20.900;2023-03-01T14:51:20;18.58;;;9.15;;
70675;SDS011;59069;52.242;20.900;2023-03-01T14:53:46;20.83;;;9.23;;
70675;SDS011;59069;52.242;20.900;2023-03-01T14:56:13;19.77;;;9.17;;
70675;SDS011;59069;52.242;20.900;2023-03-01T14:58:40;18.58;;;9.35;;
70675;SDS011;59069;52.242;20.900;2023-03-01T15:01:05;20.53;;;9.00;;
70675;SDS011;59069;52.242;20.900;2023-03-01T15:03:46;22.10;;;10.57;;
70675;SDS011;59069;52.242;20.900;2023-03-01T15:06:20;20.88;;;10.70;;
70675;SDS011;59069;52.242;20.900;2023-03-01T15:08:49;22.73;;;9.85;;
70675;SDS011;59069;52.242;20.900;2023-03-01T15:11:24;22.50;;;9.57;;
70675;SDS011;59069;52.242;20.900;2023-03-01T15:13:53;21.77;;;9.48;;
70675;SDS011;59069;52.242;20.900;2023-03-01T15:16:23;21.38;;;9.10;;
70675;SDS011;59069;52.242;20.900;2023-03-01T15:19:00;20.67;;;9.45;;
70675;SDS011;59069;52.242;20.900;2023-03-01T15:21:31;19.02;;;8.98;;
70675;SDS011;59069;52.242;20.900;2023-03-01T15:24:02;22.67;;;9.93;;
70675;SDS011;59069;52.242;20.900;2023-03-01T15:26:31;19.05;;;8.80;;
70675;SDS011;59069;52.242;20.900;2023-03-01T15:28:59;22.45;;;9.18;;
70675;SDS011;59069;52.242;20.900;2023-03-01T15:31:29;22.17;;;8.73;;
70675;SDS011;59069;52.242;20.900;2023-03-01T15:39:26;21.35;;;8.50;;
70675;SDS011;59069;52.242;20.900;2023-03-01T15:44:37;23.10;;;9.35;;
70675;SDS011;59069;52.242;20.900;2023-03-01T15:47:26;22.60;;;9.90;;
70675;SDS011;59069;52.242;20.900;2023-03-01T15:49:55;24.30;;;9.83;;
70675;SDS011;59069;52.242;20.900;2023-03-01T15:52:27;22.73;;;10.23;;
70675;SDS011;59069;52.242;20.900;2023-03-01T15:54:57;25.50;;;10.23;;
70675;SDS011;59069;52.242;20.900;2023-03-01T15:57:25;23.52;;;9.63;;
70675;SDS011;59069;52.242;20.900;2023-03-01T15:59:50;26.53;;;9.90;;
70675;SDS011;59069;52.242;20.900;2023-03-01T16:02:16;21.55;;;8.85;;
70675;SDS011;59069;52.242;20.900;2023-03-01T16:04:42;27.05;;;9.98;;
70675;SDS011;59069;52.242;20.900;2023-03-01T16:07:08;23.93;;;10.07;;
70675;SDS011;59069;52.242;20.900;2023-03-01T16:09:34;23.80;;;10.13;;
70675;SDS011;59069;52.242;20.900;2023-03-01T16:12:01;27.05;;;10.30;;
70675;SDS011;59069;52.242;20.900;2023-03-01T16:14:26;24.40;;;10.60;;
70675;SDS011;59069;52.242;20.900;2023-03-01T16:16:52;28.83;;;11.00;;
70675;SDS011;59069;52.242;20.900;2023-03-01T16:19:18;25.97;;;10.73;;
70675;SDS011;59069;52.242;20.900;2023-03-01T16:21:44;29.73;;;12.17;;
70675;SDS011;59069;52.242;20.900;2023-03-01T16:24:12;29.33;;;12.25;;
70675;SDS011;59069;52.242;20.900;2023-03-01T16:26:38;33.15;;;12.65;;
70675;SDS011;59069;52.242;20.900;2023-03-01T16:29:04;28.33;;;10.83;;
70675;SDS011;59069;52.242;20.900;2023-03-01T16:31:30;27.30;;;11.00;;
70675;SDS011;59069;52.242;20.900;2023-03-01T16:33:56;26.73;;;11.73;;
70675;SDS011;59069;52.242;20.900;2023-03-01T16:36:24;28.48;;;11.55;;
70675;SDS011;59069;52.242;20.900;2023-03-01T16:38:51;30.20;;;11.73;;
70675;SDS011;59069;52.242;20.900;2023-03-01T16:41:19;27.58;;;11.90;;
70675;SDS011;59069;52.242;20.900;2023-03-01T16:43:47;27.92;;;11.68;;
70675;SDS011;59069;52.242;20.900;2023-03-01T16:46:13;28.10;;;10.47;;
70675;SDS011;59069;52.242;20.900;2023-03-01T16:48:41;27.38;;;10.70;;
70675;SDS011;59069;52.242;20.900;2023-03-01T16:51:07;24.35;;;10.73;;
70675;SDS011;59069;52.242;20.900;2023-03-01T16:53:34;27.58;;;9.77;;
70675;SDS011;59069;52.242;20.900;2023-03-01T16:56:07;26.23;;;10.70;;
70675;SDS011;59069;52.242;20.900;2023-03-01T16:58:38;29.50;;;10.70;;